createdAt,value
2019-01-09T00:01:30.449Z,4.93
2019-01-09T00:03:58.974Z,7.80
2019-01-09T00:06:27.558Z,7.97
2019-01-09T00:08:56.151Z,7.00
2019-01-09T00:11:24.722Z,8.53
2019-01-09T00:13:53.245Z,7.37
2019-01-09T00:16:21.822Z,8.27
2019-01-09T00:18:50.414Z,4.43
2019-01-09T00:21:18.925Z,3.10
2019-01-09T00:23:47.441Z,2.50
2019-01-09T00:26:15.961Z,2.57
2019-01-09T00:28:44.465Z,1.30
2019-01-09T00:31:13.045Z,1.70
2019-01-09T00:33:41.497Z,2.20
2019-01-09T00:36:10.011Z,2.40
2019-01-09T00:38:40.485Z,8.90
2019-01-09T00:41:08.834Z,1.90
2019-01-09T00:43:37.358Z,3.03
2019-01-09T00:46:05.939Z,2.40
2019-01-09T00:48:34.446Z,1.97
2019-01-09T00:51:03.033Z,2.67
2019-01-09T00:53:31.537Z,0.60
2019-01-09T00:56:00.058Z,0.80
2019-01-09T00:58:28.638Z,5.43
2019-01-09T01:00:57.165Z,1.30
2019-01-09T01:03:34.921Z,7.50
2019-01-09T01:06:24.329Z,2.13
2019-01-09T01:09:01.755Z,1.60
2019-01-09T01:11:51.642Z,2.03
2019-01-09T01:14:47.572Z,2.20
2019-01-09T01:17:35.573Z,2.80
2019-01-09T01:20:15.966Z,2.30
2019-01-09T01:23:02.649Z,1.90
2019-01-09T01:25:49.146Z,3.27
2019-01-09T01:28:32.902Z,1.50
2019-01-09T01:31:13.450Z,1.10
2019-01-09T01:33:47.917Z,0.90
2019-01-09T01:36:37.538Z,1.00
2019-01-09T01:39:24.288Z,0.77
2019-01-09T01:42:07.845Z,0.80
2019-01-09T01:44:57.341Z,0.73
2019-01-09T01:47:47.018Z,0.60
2019-01-09T01:50:27.646Z,0.57
2019-01-09T01:52:59.161Z,0.60
2019-01-09T01:55:48.853Z,1.17
2019-01-09T01:58:22.949Z,0.60
2019-01-09T02:01:03.433Z,0.50
2019-01-09T02:04:00.632Z,0.57
2019-01-09T02:06:52.900Z,0.40
2019-01-09T02:09:51.573Z,0.50
2019-01-09T02:12:34.977Z,0.50
2019-01-09T02:15:15.453Z,1.47
2019-01-09T02:17:55.745Z,0.60
2019-01-09T02:20:43.618Z,4.13
2019-01-09T02:23:33.399Z,0.57
2019-01-09T02:26:13.770Z,0.80
2019-01-09T02:28:47.926Z,0.70
2019-01-09T02:31:19.445Z,0.80
2019-01-09T02:33:47.885Z,0.70
2019-01-09T02:36:16.337Z,0.67
2019-01-09T02:38:44.786Z,2.40
2019-01-09T02:41:13.221Z,0.50
2019-01-09T02:43:41.675Z,2.10
2019-01-09T02:46:10.107Z,0.60
2019-01-09T02:48:38.557Z,0.50
2019-01-09T02:51:07.058Z,0.40
2019-01-09T02:53:35.510Z,0.40
2019-01-09T02:56:03.946Z,0.40
2019-01-09T02:58:32.403Z,0.47
2019-01-09T03:01:00.850Z,0.40
2019-01-09T03:03:29.283Z,0.30
2019-01-09T03:05:57.719Z,0.40
2019-01-09T03:08:26.169Z,0.40
2019-01-09T03:10:54.607Z,0.40
2019-01-09T03:13:23.055Z,0.40
2019-01-09T03:15:51.489Z,0.40
2019-01-09T03:18:20.009Z,0.40
2019-01-09T03:20:48.445Z,0.30
2019-01-09T03:23:16.963Z,0.40
2019-01-09T03:25:45.413Z,0.40
2019-01-09T03:28:13.850Z,0.40
2019-01-09T03:30:42.298Z,0.40
2019-01-09T03:33:10.825Z,0.40
2019-01-09T03:35:39.340Z,0.40
2019-01-09T03:38:07.841Z,0.40
2019-01-09T03:40:36.357Z,0.30
2019-01-09T03:43:04.957Z,0.40
2019-01-09T03:45:33.452Z,0.60
2019-01-09T03:48:01.910Z,0.50
2019-01-09T03:50:30.373Z,0.60
2019-01-09T03:52:58.869Z,0.87
2019-01-09T03:55:27.414Z,0.90
2019-01-09T03:57:55.830Z,0.80
2019-01-09T04:00:24.277Z,0.70
2019-01-09T04:02:52.709Z,0.60
2019-01-09T04:05:21.165Z,0.60
2019-01-09T04:07:49.602Z,0.90
2019-01-09T04:10:18.119Z,0.80
2019-01-09T04:12:46.857Z,0.90
2019-01-09T04:15:15.368Z,0.73
2019-01-09T04:17:43.802Z,0.60
2019-01-09T04:20:12.266Z,0.40
2019-01-09T04:22:40.710Z,0.43
2019-01-09T04:25:09.145Z,0.50
2019-01-09T04:27:37.606Z,0.50
2019-01-09T04:30:07.680Z,0.50
2019-01-09T04:32:36.117Z,0.40
2019-01-09T04:35:04.836Z,0.47
2019-01-09T04:37:33.265Z,0.50
2019-01-09T04:40:01.716Z,0.60
2019-01-09T04:42:30.175Z,0.60
2019-01-09T04:44:58.699Z,0.50
2019-01-09T04:47:27.217Z,0.50
2019-01-09T04:49:55.685Z,0.60
2019-01-09T04:52:24.135Z,0.50
2019-01-09T04:54:52.590Z,0.50
2019-01-09T04:57:21.014Z,0.57
2019-01-09T04:59:49.470Z,0.50
2019-01-09T05:02:17.912Z,0.57
2019-01-09T05:04:46.350Z,0.70
2019-01-09T05:07:14.786Z,0.70
2019-01-09T05:09:43.238Z,0.50
2019-01-09T05:12:11.676Z,0.43
2019-01-09T05:14:40.193Z,0.40
2019-01-09T05:17:08.626Z,0.40
2019-01-09T05:19:37.073Z,0.30
2019-01-09T05:22:05.510Z,0.40
2019-01-09T05:24:33.960Z,0.40
2019-01-09T05:27:02.464Z,0.30
2019-01-09T05:29:30.913Z,0.40
2019-01-09T05:31:59.352Z,0.40
2019-01-09T05:34:27.785Z,0.40
2019-01-09T05:36:57.852Z,0.50
2019-01-09T05:39:26.561Z,0.40
2019-01-09T05:41:54.996Z,0.50
2019-01-09T05:44:23.441Z,0.40
2019-01-09T05:46:51.895Z,0.50
2019-01-09T05:49:20.326Z,0.40
2019-01-09T05:51:48.768Z,0.50
2019-01-09T05:54:17.286Z,0.40
2019-01-09T05:56:45.725Z,2.00
2019-01-09T05:59:14.181Z,0.40
2019-01-09T06:01:42.613Z,0.50
2019-01-09T06:04:11.050Z,0.43
2019-01-09T06:06:39.501Z,0.60
2019-01-09T06:09:07.929Z,0.53
2019-01-09T06:11:36.381Z,0.60
2019-01-09T06:14:04.822Z,1.43
2019-01-09T06:16:33.280Z,0.53
2019-01-09T06:19:01.715Z,0.70
2019-01-09T06:21:30.161Z,0.70
2019-01-09T06:23:58.593Z,3.20
2019-01-09T06:26:27.117Z,0.50
2019-01-09T06:28:55.557Z,0.50
2019-01-09T06:31:24.001Z,0.50
2019-01-09T06:33:52.444Z,0.80
2019-01-09T06:36:20.906Z,0.60
2019-01-09T06:38:49.365Z,0.97
2019-01-09T06:41:17.866Z,0.80
2019-01-09T06:43:46.326Z,0.97
2019-01-09T06:46:14.752Z,0.80
2019-01-09T06:48:43.274Z,0.97
2019-01-09T06:51:11.721Z,0.67
2019-01-09T06:53:40.502Z,1.70
2019-01-09T06:56:09.004Z,1.03
2019-01-09T06:58:37.498Z,3.70
2019-01-09T07:01:05.949Z,1.50
2019-01-09T07:03:34.397Z,3.00
2019-01-09T07:06:02.849Z,2.30
2019-01-09T07:08:31.287Z,2.23
2019-01-09T07:10:59.744Z,1.63
2019-01-09T07:13:28.174Z,1.20
2019-01-09T07:15:56.621Z,1.30
2019-01-09T07:18:25.075Z,3.00
2019-01-09T07:20:53.522Z,0.97
2019-01-09T07:23:21.973Z,1.77
2019-01-09T07:25:50.402Z,2.10
2019-01-09T07:28:18.861Z,2.70
2019-01-09T07:30:47.374Z,1.20
2019-01-09T07:33:15.837Z,1.40
2019-01-09T07:35:44.301Z,1.40
2019-01-09T07:38:12.805Z,1.27
2019-01-09T07:40:41.258Z,0.90
2019-01-09T07:43:09.705Z,0.53
2019-01-09T07:45:38.133Z,0.80
2019-01-09T07:48:06.720Z,0.80
2019-01-09T07:50:35.164Z,0.60
2019-01-09T07:53:03.603Z,0.53
2019-01-09T07:55:32.054Z,1.00
2019-01-09T07:58:00.488Z,0.70
2019-01-09T08:00:28.937Z,0.50
2019-01-09T08:02:57.397Z,0.70
2019-01-09T08:05:25.901Z,0.50
2019-01-09T08:07:54.409Z,0.40
2019-01-09T08:10:22.936Z,4.40
2019-01-09T08:12:51.386Z,1.30
2019-01-09T08:15:19.823Z,1.63
2019-01-09T08:17:48.270Z,1.50
2019-01-09T08:20:16.708Z,0.90
2019-01-09T08:22:45.152Z,1.07
2019-01-09T08:25:13.673Z,3.50
2019-01-09T08:27:42.177Z,4.50
2019-01-09T08:30:11.166Z,4.50
2019-01-09T08:32:39.638Z,1.90
2019-01-09T08:35:08.240Z,2.30
2019-01-09T08:37:36.744Z,4.03
2019-01-09T08:40:07.935Z,4.20
2019-01-09T08:42:36.366Z,5.03
2019-01-09T08:45:06.158Z,2.30
2019-01-09T08:47:34.593Z,0.40
2019-01-09T08:50:03.254Z,2.73
2019-01-09T08:52:32.657Z,1.57
2019-01-09T08:55:01.233Z,4.23
2019-01-09T08:57:29.721Z,3.30
2019-01-09T08:59:58.173Z,3.70
2019-01-09T09:02:26.620Z,0.60
2019-01-09T09:04:55.061Z,0.80
2019-01-09T09:07:25.486Z,0.50
2019-01-09T09:09:53.921Z,0.30
2019-01-09T09:12:22.441Z,0.50
2019-01-09T09:14:50.902Z,1.13
2019-01-09T09:17:19.435Z,0.30
2019-01-09T09:19:47.875Z,0.40
2019-01-09T09:22:16.317Z,0.30
2019-01-09T09:24:44.749Z,0.50
2019-01-09T09:27:13.200Z,0.30
2019-01-09T09:29:41.705Z,0.30
2019-01-09T09:32:10.162Z,0.40
2019-01-09T09:34:38.598Z,0.30
2019-01-09T09:37:07.049Z,1.70
2019-01-09T09:39:35.511Z,0.50
2019-01-09T09:42:04.022Z,1.87
2019-01-09T09:44:32.478Z,2.73
2019-01-09T09:47:00.929Z,0.83
2019-01-09T09:49:29.378Z,0.40
2019-01-09T09:51:57.813Z,0.40
2019-01-09T09:54:26.286Z,0.40
2019-01-09T09:56:54.782Z,0.40
2019-01-09T09:59:23.230Z,0.40
2019-01-09T10:01:51.753Z,0.33
2019-01-09T10:04:20.186Z,0.30
2019-01-09T10:06:48.634Z,1.20
2019-01-09T10:09:17.069Z,0.33
2019-01-09T10:11:45.525Z,0.30
2019-01-09T10:14:13.963Z,0.43
2019-01-09T10:16:42.757Z,0.40
2019-01-09T10:19:11.291Z,0.40
2019-01-09T10:21:39.709Z,0.43
2019-01-09T10:24:08.173Z,0.60
2019-01-09T10:26:36.677Z,0.40
2019-01-09T10:29:05.116Z,0.60
2019-01-09T10:31:33.565Z,2.77
2019-01-09T10:34:02.013Z,0.70
2019-01-09T10:36:30.447Z,0.47
2019-01-09T10:38:58.899Z,0.30
2019-01-09T10:41:27.330Z,0.33
2019-01-09T10:43:55.779Z,7.20
2019-01-09T10:46:24.209Z,0.87
2019-01-09T10:48:52.661Z,0.70
2019-01-09T10:51:21.099Z,0.50
2019-01-09T10:53:49.561Z,0.40
2019-01-09T10:56:17.998Z,0.40
2019-01-09T10:58:46.433Z,0.60
2019-01-09T11:01:14.886Z,0.77
2019-01-09T11:03:43.318Z,1.70
2019-01-09T11:06:11.842Z,0.40
2019-01-09T11:08:46.850Z,0.50
2019-01-09T11:11:10.528Z,2.43
2019-01-09T11:13:38.975Z,0.40
2019-01-09T11:16:07.414Z,0.40
2019-01-09T11:18:36.173Z,0.47
2019-01-09T11:21:05.249Z,0.37
2019-01-09T11:23:33.693Z,0.40
2019-01-09T11:26:02.269Z,0.50
2019-01-09T11:28:30.762Z,0.40
2019-01-09T11:30:59.195Z,0.40
2019-01-09T11:33:28.022Z,0.40
2019-01-09T11:35:56.457Z,1.70
2019-01-09T11:38:24.894Z,0.87
2019-01-09T11:40:53.339Z,0.30
2019-01-09T11:43:21.769Z,0.40
2019-01-09T11:45:50.221Z,0.40
2019-01-09T11:48:18.653Z,0.40
2019-01-09T11:50:47.490Z,0.57
2019-01-09T11:53:15.928Z,0.90
2019-01-09T11:55:44.367Z,0.90
2019-01-09T11:58:12.885Z,3.83
2019-01-09T12:00:42.795Z,0.87
2019-01-09T12:03:11.546Z,0.67
2019-01-09T12:05:39.998Z,0.60
2019-01-09T12:08:08.762Z,0.50
2019-01-09T12:10:37.239Z,0.40
2019-01-09T12:13:05.670Z,2.57
2019-01-09T12:15:34.119Z,0.40
2019-01-09T12:18:02.558Z,0.40
2019-01-09T12:20:31.003Z,1.77
2019-01-09T12:22:59.522Z,0.40
2019-01-09T12:25:27.966Z,0.50
2019-01-09T12:27:56.397Z,0.90
2019-01-09T12:30:28.581Z,1.10
2019-01-09T12:32:57.202Z,0.97
2019-01-09T12:35:25.717Z,0.60
2019-01-09T12:37:54.172Z,0.80
2019-01-09T12:40:22.689Z,0.30
2019-01-09T12:42:51.126Z,0.30
2019-01-09T12:45:19.744Z,0.30
2019-01-09T12:47:48.172Z,0.40
2019-01-09T12:50:26.247Z,0.40
2019-01-09T12:52:54.858Z,1.50
2019-01-09T12:55:23.385Z,0.30
2019-01-09T12:57:51.826Z,0.40
2019-01-09T13:00:25.498Z,0.80
2019-01-09T13:02:54.082Z,0.30
2019-01-09T13:05:22.662Z,0.40
2019-01-09T13:07:51.257Z,0.40
2019-01-09T13:10:19.698Z,0.40
2019-01-09T13:12:48.271Z,0.40
2019-01-09T13:15:16.856Z,0.73
2019-01-09T13:17:45.293Z,0.57
2019-01-09T13:20:15.385Z,0.40
2019-01-09T13:22:43.958Z,0.40
2019-01-09T13:25:14.997Z,8.13
2019-01-09T13:27:44.045Z,0.40
2019-01-09T13:30:15.520Z,0.40
2019-01-09T13:32:44.041Z,0.60
2019-01-09T13:35:12.541Z,0.30
2019-01-09T13:37:40.992Z,0.50
2019-01-09T13:40:15.061Z,0.40
2019-01-09T13:42:43.649Z,0.50
2019-01-09T13:45:14.721Z,0.70
2019-01-09T13:47:43.366Z,0.70
2019-01-09T13:50:14.458Z,0.80
2019-01-09T13:52:43.022Z,0.60
2019-01-09T13:55:13.640Z,0.80
2019-01-09T13:57:42.510Z,2.00
2019-01-09T14:00:14.330Z,0.90
2019-01-09T14:02:42.766Z,1.07
2019-01-09T14:05:11.361Z,0.50
2019-01-09T14:07:39.952Z,0.60
2019-01-09T14:10:17.246Z,0.80
2019-01-09T14:12:45.749Z,0.70
2019-01-09T14:15:19.234Z,0.70
2019-01-09T14:17:48.713Z,0.60
2019-01-09T14:20:17.305Z,0.80
2019-01-09T14:22:46.819Z,0.70
2019-01-09T14:25:16.817Z,0.90
2019-01-09T14:27:45.329Z,1.63
2019-01-09T14:30:22.209Z,1.10
2019-01-09T14:32:50.716Z,1.00
2019-01-09T14:35:19.230Z,1.20
2019-01-09T14:37:47.670Z,1.10
2019-01-09T14:40:18.139Z,0.70
2019-01-09T14:42:46.663Z,0.60
2019-01-09T14:45:16.653Z,0.60
2019-01-09T14:47:45.169Z,0.63
2019-01-09T14:50:22.134Z,0.60
2019-01-09T14:53:09.921Z,0.90
2019-01-09T14:55:57.713Z,1.10
2019-01-09T14:58:26.294Z,1.40
2019-01-09T15:00:54.805Z,2.67
2019-01-09T15:03:23.248Z,1.33
2019-01-09T15:05:51.692Z,1.20
2019-01-09T15:08:20.217Z,17.87
2019-01-09T15:10:48.721Z,19.10
2019-01-09T15:13:17.173Z,9.10
2019-01-09T15:15:47.750Z,2.60
2019-01-09T15:18:16.198Z,0.50
2019-01-09T15:20:44.697Z,0.50
2019-01-09T15:23:13.150Z,0.57
2019-01-09T15:25:41.598Z,0.70
2019-01-09T15:28:10.074Z,0.67
2019-01-09T15:30:38.522Z,0.60
2019-01-09T15:33:06.967Z,0.50
2019-01-09T15:35:35.493Z,0.70
2019-01-09T15:38:03.933Z,0.50
2019-01-09T15:40:32.451Z,0.50
2019-01-09T15:43:00.898Z,0.70
2019-01-09T15:45:29.412Z,0.60
2019-01-09T15:47:57.998Z,0.60
2019-01-09T15:50:28.082Z,0.60
2019-01-09T15:52:56.534Z,0.67
2019-01-09T15:55:25.364Z,0.60
2019-01-09T15:57:54.808Z,0.60
2019-01-09T16:00:25.822Z,0.93
2019-01-09T16:02:54.309Z,1.67
2019-01-09T16:05:22.842Z,0.80
2019-01-09T16:07:51.343Z,1.13
2019-01-09T16:10:22.383Z,1.10
2019-01-09T16:12:50.946Z,1.70
2019-01-09T16:15:19.702Z,2.23
2019-01-09T16:17:48.535Z,1.30
2019-01-09T16:20:19.673Z,1.43
2019-01-09T16:26:17.123Z,1.83
2019-01-09T16:28:45.583Z,1.40
2019-01-09T16:37:59.445Z,1.03
2019-01-09T16:40:28.024Z,1.50
2019-01-09T16:42:56.493Z,2.20
2019-01-09T16:45:25.011Z,3.73
2019-01-09T16:47:53.513Z,1.90
2019-01-09T16:50:25.210Z,1.77
2019-01-09T16:52:53.735Z,1.53
2019-01-09T16:55:22.323Z,3.23
2019-01-09T16:57:50.825Z,1.23
2019-01-09T17:00:25.786Z,1.47
2019-01-09T17:02:54.309Z,2.07
2019-01-09T17:05:22.889Z,3.77
2019-01-09T17:07:52.049Z,2.70
2019-01-09T17:10:20.662Z,2.47
2019-01-09T17:12:49.112Z,2.30
2019-01-09T17:15:18.870Z,3.00
2019-01-09T17:17:47.742Z,3.60
2019-01-09T17:20:19.199Z,3.57
2019-01-09T17:22:47.782Z,3.40
2019-01-09T17:25:16.453Z,1.97
2019-01-09T17:27:44.986Z,4.00
2019-01-09T17:30:21.942Z,1.73
2019-01-09T17:32:50.541Z,2.00
2019-01-09T17:35:19.118Z,1.60
2019-01-09T17:37:47.780Z,1.57
2019-01-09T17:40:18.353Z,1.37
2019-01-09T17:43:06.594Z,1.13
2019-01-09T17:45:54.462Z,2.07
2019-01-09T17:48:22.989Z,1.73
2019-01-09T17:50:51.431Z,1.83
2019-01-09T17:53:19.961Z,0.93
2019-01-09T17:55:48.393Z,0.80
2019-01-09T17:58:16.848Z,3.57
2019-01-09T18:00:45.807Z,2.70
2019-01-09T18:03:14.681Z,3.43
2019-01-09T18:05:43.129Z,7.07
2019-01-09T18:08:11.641Z,5.03
2019-01-09T18:10:40.105Z,5.80
2019-01-09T18:13:10.269Z,12.40
2019-01-09T18:15:38.802Z,7.00
2019-01-09T18:18:07.550Z,8.33
2019-01-09T18:20:36.082Z,9.23
2019-01-09T18:23:04.835Z,9.27
2019-01-09T18:25:33.437Z,6.57
2019-01-09T18:28:01.934Z,9.20
2019-01-09T18:30:39.546Z,4.23
2019-01-09T18:33:23.245Z,6.40
2019-01-09T18:36:25.174Z,6.23
2019-01-09T18:39:27.050Z,5.73
2019-01-09T18:42:07.601Z,4.53
2019-01-09T18:44:41.929Z,6.90
2019-01-09T18:47:22.233Z,5.87
2019-01-09T18:49:53.849Z,6.33
2019-01-09T18:52:31.086Z,7.93
2019-01-09T18:54:59.546Z,6.60
2019-01-09T18:57:28.057Z,5.43
2019-01-09T18:59:56.513Z,4.23
2019-01-09T19:02:25.050Z,4.07
2019-01-09T19:04:53.565Z,6.83
2019-01-09T19:07:22.242Z,8.77
2019-01-09T19:09:50.750Z,3.63
2019-01-09T19:12:19.207Z,3.23
2019-01-09T19:14:48.133Z,7.70
2019-01-09T19:17:16.649Z,5.00
2019-01-09T19:19:45.088Z,6.33
2019-01-09T19:22:13.706Z,8.00
2019-01-09T19:24:42.217Z,5.73
2019-01-09T19:27:10.759Z,5.53
2019-01-09T19:29:39.542Z,6.33
2019-01-09T19:32:08.209Z,7.47
2019-01-09T19:34:36.717Z,5.73
2019-01-09T19:37:05.317Z,3.57
2019-01-09T19:39:33.765Z,4.57
2019-01-09T19:42:02.286Z,5.23
2019-01-09T19:44:30.823Z,2.53
2019-01-09T19:46:59.403Z,2.90
2019-01-09T19:49:27.929Z,3.60
2019-01-09T19:51:56.371Z,2.50
2019-01-09T19:54:24.810Z,3.30
2019-01-09T19:56:53.338Z,2.73
2019-01-09T19:59:21.796Z,2.83
2019-01-09T20:01:50.386Z,3.33
2019-01-09T20:04:18.898Z,2.63
2019-01-09T20:06:47.838Z,2.67
2019-01-09T20:09:16.379Z,1.47
2019-01-09T20:11:45.020Z,2.10
2019-01-09T20:14:13.581Z,1.60
2019-01-09T20:16:42.229Z,2.23
2019-01-09T20:19:10.853Z,1.70
2019-01-09T20:21:39.502Z,0.93
2019-01-09T20:24:08.040Z,2.90
2019-01-09T20:26:36.633Z,1.50
2019-01-09T20:29:05.314Z,2.77
2019-01-09T20:31:34.137Z,1.47
2019-01-09T20:34:02.651Z,1.03
2019-01-09T20:36:31.119Z,1.00
2019-01-09T20:38:59.725Z,0.97
2019-01-09T20:41:35.213Z,1.30
2019-01-09T20:43:58.698Z,0.90
2019-01-09T20:46:27.266Z,3.13
2019-01-09T20:48:55.736Z,9.47
2019-01-09T20:51:24.380Z,4.60
2019-01-09T20:53:52.932Z,3.37
2019-01-09T20:56:21.782Z,1.30
2019-01-09T20:58:50.345Z,1.00
2019-01-09T21:01:18.971Z,2.00
2019-01-09T21:03:47.520Z,2.00
2019-01-09T21:06:16.416Z,0.77
2019-01-09T21:08:45.322Z,1.77
2019-01-09T21:11:13.910Z,1.93
2019-01-09T21:13:42.482Z,1.50
2019-01-09T21:16:11.025Z,2.80
2019-01-09T21:18:39.521Z,0.77
2019-01-09T21:21:08.117Z,2.47
2019-01-09T21:23:36.705Z,2.13
2019-01-09T21:26:05.589Z,8.13
2019-01-09T21:28:34.073Z,6.07
2019-01-09T21:31:02.988Z,5.50
2019-01-09T21:33:31.425Z,7.63
2019-01-09T21:35:59.929Z,5.43
2019-01-09T21:38:28.385Z,7.60
2019-01-09T21:40:56.837Z,6.00
2019-01-09T21:43:25.305Z,8.10
2019-01-09T21:45:53.893Z,6.10
2019-01-09T21:48:22.415Z,4.47
2019-01-09T21:50:50.865Z,6.37
2019-01-09T21:53:19.309Z,3.00
2019-01-09T21:55:47.821Z,2.17
2019-01-09T21:58:16.345Z,3.93
2019-01-09T22:00:45.124Z,3.03
2019-01-09T22:03:13.674Z,0.83
2019-01-09T22:05:42.203Z,2.00
2019-01-09T22:08:10.804Z,1.60
2019-01-09T22:10:39.406Z,1.10
2019-01-09T22:13:08.073Z,1.20
2019-01-09T22:15:36.674Z,1.40
2019-01-09T22:18:05.251Z,0.80
2019-01-09T22:20:33.778Z,1.90
2019-01-09T22:23:02.367Z,2.13
2019-01-09T22:25:30.918Z,0.60
2019-01-09T22:27:59.441Z,0.50
2019-01-09T22:30:28.606Z,0.60
2019-01-09T22:32:57.252Z,0.57
2019-01-09T22:35:26.128Z,1.03
2019-01-09T22:37:54.637Z,0.47
2019-01-09T22:40:23.331Z,0.50
2019-01-09T22:42:51.849Z,0.50
2019-01-09T22:45:20.612Z,0.53
2019-01-09T22:47:49.170Z,0.50
2019-01-09T22:50:20.337Z,0.50
2019-01-09T22:52:48.783Z,0.50
2019-01-09T22:55:17.310Z,0.63
2019-01-09T22:57:45.813Z,0.70
2019-01-09T23:00:38.760Z,0.60
2019-01-09T23:03:10.635Z,0.60
2019-01-09T23:05:39.305Z,0.80
2019-01-09T23:08:07.898Z,0.60
2019-01-09T23:10:36.473Z,0.53
2019-01-09T23:13:05.097Z,0.40
2019-01-09T23:15:33.680Z,0.70
2019-01-09T23:18:02.469Z,0.50
2019-01-09T23:20:30.934Z,0.53
2019-01-09T23:22:59.433Z,0.50
2019-01-09T23:25:28.029Z,1.30
2019-01-09T23:27:56.909Z,0.70
2019-01-09T23:30:25.425Z,0.60
2019-01-09T23:32:54.197Z,0.70
2019-01-09T23:35:22.834Z,0.50
2019-01-09T23:37:51.490Z,0.50
2019-01-09T23:40:20.377Z,0.40
2019-01-09T23:42:48.890Z,0.50
2019-01-09T23:45:17.497Z,0.43
2019-01-09T23:47:46.018Z,0.70
2019-01-09T23:50:14.690Z,0.40
2019-01-09T23:52:43.151Z,0.40
2019-01-09T23:55:12.629Z,0.40
2019-01-09T23:57:41.546Z,0.50
